Time;durP1;ratioP1;P1;durP2;ratioP2;P2;SDS_P1;SDS_P2;PMS_P1;PMS_P2;Temp;Humidity;BMP_temperature;BMP_pressure;BME280_temperature;BME280_humidity;BME280_pressure;Samples;Min_cycle;Max_cycle;Signal;HPM_P1;HPM_P2
2022/07/03 00:01:32;;;;;;;5.08;2.92;;;;;;;20.80;51.32;100232.53;1746876;80;21096;-74
2022/07/03 00:03:59;;;;;;;5.00;3.20;;;;;;;20.78;51.31;100227.88;1763926;78;21056;-73
2022/07/03 00:06:26;;;;;;;4.83;2.77;;;;;;;20.77;51.34;100218.96;1767726;79;21144;-74
2022/07/03 00:08:53;;;;;;;6.70;2.95;;;;;;;20.76;51.23;100220.53;1775951;79;21037;-74
2022/07/03 00:11:21;;;;;;;5.50;3.12;;;;;;;20.74;51.24;100224.80;1781551;80;21532;-73
2022/07/03 00:13:48;;;;;;;5.22;2.62;;;;;;;20.71;51.26;100214.99;1786476;80;21021;-73
2022/07/03 00:16:14;;;;;;;8.28;3.05;;;;;;;20.69;51.28;100217.09;1780868;79;21041;-72
2022/07/03 00:18:41;;;;;;;4.08;2.75;;;;;;;20.66;51.11;100210.78;1781943;79;21221;-74
2022/07/03 00:21:09;;;;;;;5.47;2.83;;;;;;;20.65;51.26;100210.46;1781838;80;20980;-72
2022/07/03 00:23:56;;;;;;;6.20;2.90;;;;;;;20.65;51.30;100209.11;1789152;80;21116;-73
2022/07/03 00:26:23;;;;;;;4.90;2.90;;;;;;;20.64;51.30;100209.64;1807789;77;21014;-75
2022/07/03 00:28:49;;;;;;;5.05;3.05;;;;;;;20.61;51.15;100210.92;1800592;78;21034;-74
2022/07/03 00:31:16;;;;;;;4.97;2.75;;;;;;;20.60;51.22;100207.09;1814152;77;21146;-74
2022/07/03 00:33:43;;;;;;;4.60;2.40;;;;;;;20.58;51.16;100199.19;1783813;78;21028;-73
2022/07/03 00:36:09;;;;;;;13.78;3.92;;;;;;;20.54;51.24;100196.63;1819636;77;21009;-72
2022/07/03 00:38:35;;;;;;;4.87;2.95;;;;;;;20.53;51.33;100198.20;1823732;78;21057;-75
2022/07/03 00:41:03;;;;;;;2.95;2.62;;;;;;;20.52;51.41;100196.56;1777377;78;21636;-72
2022/07/03 00:43:30;;;;;;;5.90;2.83;;;;;;;20.49;51.36;100186.20;1801787;77;21138;-73
2022/07/03 00:46:07;;;;;;;4.00;2.40;;;;;;;20.48;51.35;100194.83;1785348;78;21555;-74
2022/07/03 00:48:37;;;;;;;2.50;2.25;;;;;;;20.46;51.28;100195.58;1816658;77;21548;-72
2022/07/03 00:51:03;;;;;;;5.55;2.60;;;;;;;20.45;51.35;100188.52;1804956;78;21043;-75
2022/07/03 00:53:32;;;;;;;4.60;2.55;;;;;;;20.43;51.33;100186.03;1812240;77;21033;-74
2022/07/03 00:55:59;;;;;;;3.47;2.52;;;;;;;20.42;51.26;100188.97;1802520;79;21192;-73
2022/07/03 00:58:25;;;;;;;7.17;2.45;;;;;;;20.39;51.26;100190.22;1795572;78;21049;-72
2022/07/03 01:00:52;;;;;;;2.35;2.15;;;;;;;20.37;51.27;100186.11;1800192;79;21057;-73
2022/07/03 01:03:21;;;;;;;7.25;2.75;;;;;;;20.36;51.24;100188.52;1788670;79;21044;-73
2022/07/03 01:05:53;;;;;;;7.72;2.60;;;;;;;20.34;51.29;100181.14;1803860;79;21513;-73
2022/07/03 01:08:43;;;;;;;6.37;3.57;;;;;;;20.32;51.29;100186.78;1777340;78;21485;-74
2022/07/03 01:11:48;;;;;;;4.17;2.47;;;;;;;20.32;51.46;100190.83;1815142;78;21266;-74
2022/07/03 01:14:45;;;;;;;7.37;2.50;;;;;;;20.29;51.53;100189.09;1803904;77;20982;-76
2022/07/03 01:17:33;;;;;;;6.35;2.60;;;;;;;20.26;51.60;100188.98;1816954;77;21117;-72
2022/07/03 01:20:03;;;;;;;4.65;2.25;;;;;;;20.24;51.61;100188.39;1788745;78;21049;-72
2022/07/03 01:22:44;;;;;;;4.75;2.52;;;;;;;20.22;51.67;100187.28;1804546;77;21087;-73
2022/07/03 01:25:27;;;;;;;2.98;2.60;;;;;;;20.19;51.90;100186.89;1820835;77;21024;-74
2022/07/03 01:28:16;;;;;;;4.78;2.30;;;;;;;20.18;51.87;100185.23;1801423;78;27435;-73
2022/07/03 01:30:49;;;;;;;4.65;2.95;;;;;;;20.16;51.94;100181.92;1822130;77;21167;-76
2022/07/03 01:33:23;;;;;;;4.92;2.50;;;;;;;20.16;51.83;100183.28;1822394;77;21033;-74
2022/07/03 01:36:05;;;;;;;3.27;2.40;;;;;;;20.14;51.75;100177.28;1814517;77;21090;-74
2022/07/03 01:38:37;;;;;;;4.08;2.80;;;;;;;20.12;51.75;100180.19;1815489;77;21549;-75
2022/07/03 01:41:07;;;;;;;4.70;2.27;;;;;;;20.12;51.72;100178.84;1804672;77;20992;-74
2022/07/03 01:43:38;;;;;;;3.30;2.17;;;;;;;20.10;51.82;100189.02;1801631;78;21045;-77
2022/07/03 01:46:06;;;;;;;3.83;2.50;;;;;;;20.07;51.84;100173.30;1809278;78;21006;-75
2022/07/03 01:48:33;;;;;;;5.03;2.42;;;;;;;20.06;51.88;100172.17;1783669;79;21851;-75
2022/07/03 01:51:00;;;;;;;3.40;2.30;;;;;;;20.03;51.92;100167.52;1816448;77;21005;-75
2022/07/03 01:53:30;;;;;;;3.98;2.45;;;;;;;20.02;51.71;100171.78;1814691;77;21501;-75
2022/07/03 01:55:58;;;;;;;2.55;2.25;;;;;;;19.99;51.69;100170.36;1768996;79;21097;-75
2022/07/03 01:58:25;;;;;;;3.72;2.17;;;;;;;19.97;51.81;100168.91;1784795;80;21025;-75
2022/07/03 02:01:21;;;;;;;5.03;2.37;;;;;;;19.97;51.86;100170.25;1765959;78;22027;-75
2022/07/03 02:04:04;;;;;;;2.92;2.17;;;;;;;19.96;51.82;100174.01;1787921;78;21013;-74
2022/07/03 02:06:50;;;;;;;3.12;2.50;;;;;;;19.94;51.76;100172.05;1776173;78;21021;-74
2022/07/03 02:09:18;;;;;;;2.70;2.25;;;;;;;19.92;51.85;100170.10;1783971;78;21524;-75
2022/07/03 02:11:44;;;;;;;6.17;2.52;;;;;;;19.90;51.90;100174.36;1781596;78;20997;-72
2022/07/03 02:14:14;;;;;;;4.83;2.58;;;;;;;19.89;51.99;100178.09;1785614;78;21137;-74
2022/07/03 02:16:55;;;;;;;3.42;2.40;;;;;;;19.89;51.91;100173.22;1766686;78;20969;-75
2022/07/03 02:19:29;;;;;;;4.37;2.60;;;;;;;19.90;51.86;100170.84;1779940;78;20993;-74
2022/07/03 02:21:57;;;;;;;6.25;2.70;;;;;;;19.91;51.64;100175.99;1786822;78;21528;-74
2022/07/03 02:24:27;;;;;;;3.87;2.25;;;;;;;19.92;51.61;100172.80;1767999;78;22064;-75
2022/07/03 02:27:01;;;;;;;5.12;2.47;;;;;;;19.94;51.62;100170.70;1780593;78;21328;-73
2022/07/03 02:29:42;;;;;;;2.47;2.17;;;;;;;19.93;51.52;100161.77;1784109;78;21017;-72
2022/07/03 02:32:13;;;;;;;2.57;2.30;;;;;;;19.95;51.30;100169.64;1797876;78;21107;-74
2022/07/03 02:34:44;;;;;;;3.02;1.80;;;;;;;19.96;51.20;100166.73;1785842;78;21489;-75
2022/07/03 02:37:17;;;;;;;5.10;2.25;;;;;;;19.97;51.03;100165.70;1798784;77;21603;-73
2022/07/03 02:39:56;;;;;;;3.20;2.10;;;;;;;20.00;51.04;100167.95;1794364;79;22082;-73
2022/07/03 02:42:42;;;;;;;6.08;2.42;;;;;;;20.02;50.99;100169.90;1781865;80;21085;-71
2022/07/03 02:45:10;;;;;;;5.70;2.33;;;;;;;20.05;51.02;100168.66;1822997;78;21036;-73
2022/07/03 02:47:49;;;;;;;3.45;2.08;;;;;;;20.08;50.95;100170.08;1799181;78;21084;-73
2022/07/03 02:50:19;;;;;;;5.45;2.30;;;;;;;20.09;50.92;100169.86;1757090;79;21051;-75
2022/07/03 02:53:03;;;;;;;9.28;2.75;;;;;;;20.10;50.80;100167.45;1779623;80;21214;-73
2022/07/03 02:55:46;;;;;;;2.87;2.37;;;;;;;20.12;50.86;100172.09;1780706;79;21132;-73
2022/07/03 02:58:40;;;;;;;4.33;2.20;;;;;;;20.14;50.63;100174.58;1818317;77;21528;-74
2022/07/03 03:01:36;;;;;;;4.05;2.30;;;;;;;20.14;50.74;100169.19;1789432;77;21060;-72
2022/07/03 03:04:24;;;;;;;5.37;2.50;;;;;;;20.14;50.77;100174.58;1728788;81;21069;-73
2022/07/03 03:07:14;;;;;;;5.70;2.50;;;;;;;20.13;50.92;100171.06;1763717;80;21105;-74
2022/07/03 03:09:45;;;;;;;3.75;2.25;;;;;;;20.13;51.01;100173.77;1780758;78;21050;-71
2022/07/03 03:12:12;;;;;;;5.70;2.70;;;;;;;20.12;51.07;100172.09;1791413;78;21349;-74
2022/07/03 03:14:43;;;;;;;2.85;2.20;;;;;;;20.13;51.00;100173.77;1816966;77;20997;-73
2022/07/03 03:17:20;;;;;;;7.25;2.60;;;;;;;20.13;51.17;100170.25;1796741;77;21049;-72
2022/07/03 03:19:51;;;;;;;7.10;2.52;;;;;;;20.14;51.22;100171.35;1812683;77;21271;-74
2022/07/03 03:22:30;;;;;;;3.12;2.58;;;;;;;20.15;51.16;100174.37;1804451;77;21046;-73
2022/07/03 03:24:58;;;;;;;3.55;2.25;;;;;;;20.15;51.17;100166.80;1812753;77;21080;-72
2022/07/03 03:27:25;;;;;;;2.75;2.55;;;;;;;20.17;51.22;100174.16;1800192;77;21046;-73
2022/07/03 03:29:52;;;;;;;6.15;2.60;;;;;;;20.20;51.17;100170.99;1803509;78;21071;-72
2022/07/03 03:32:18;;;;;;;2.50;2.30;;;;;;;20.23;51.19;100169.22;1806080;77;21177;-71
2022/07/03 03:34:44;;;;;;;3.30;2.22;;;;;;;20.28;51.17;100169.89;1818042;78;21087;-73
2022/07/03 03:37:11;;;;;;;3.50;2.55;;;;;;;20.32;51.07;100171.94;1725814;80;21049;-72
2022/07/03 03:39:37;;;;;;;5.55;2.20;;;;;;;20.37;51.01;100168.03;1809972;77;21006;-72
2022/07/03 03:42:05;;;;;;;3.70;2.40;;;;;;;20.43;51.01;100170.37;1821248;78;21362;-75
2022/07/03 03:44:32;;;;;;;3.12;2.20;;;;;;;20.48;51.06;100169.19;1791883;79;21147;-74
2022/07/03 03:46:58;;;;;;;10.50;2.60;;;;;;;20.54;51.09;100172.34;1804652;79;21020;-74
2022/07/03 03:49:25;;;;;;;3.37;2.02;;;;;;;20.58;50.58;100174.89;1801518;79;21123;-76
2022/07/03 03:51:52;;;;;;;5.70;2.20;;;;;;;20.63;50.40;100170.22;1795665;79;21484;-74
2022/07/03 03:54:19;;;;;;;4.22;2.12;;;;;;;20.67;50.31;100174.62;1792711;78;21560;-72
2022/07/03 03:56:47;;;;;;;4.85;2.33;;;;;;;20.71;50.28;100170.45;1792772;78;21072;-72
2022/07/03 03:59:13;;;;;;;4.20;2.20;;;;;;;20.78;50.26;100173.38;1790555;78;21033;-76
2022/07/03 04:01:40;;;;;;;4.08;1.90;;;;;;;20.86;50.22;100182.20;1793951;78;21013;-73
2022/07/03 04:04:06;;;;;;;5.22;2.47;;;;;;;20.92;50.05;100179.45;1802386;79;21036;-74
2022/07/03 04:06:33;;;;;;;4.60;2.30;;;;;;;21.00;49.99;100173.73;1796940;78;21050;-74
2022/07/03 04:08:59;;;;;;;2.27;2.08;;;;;;;21.11;50.01;100175.37;1797091;79;21560;-74
2022/07/03 04:11:26;;;;;;;4.58;2.65;;;;;;;21.24;49.91;100177.91;1781103;79;22051;-73
2022/07/03 04:13:52;;;;;;;5.22;2.35;;;;;;;21.34;49.48;100175.50;1791852;78;21092;-75
2022/07/03 04:16:19;;;;;;;4.33;2.33;;;;;;;21.44;49.41;100173.63;1774893;78;21504;-74
2022/07/03 04:18:46;;;;;;;6.50;2.47;;;;;;;21.55;49.29;100168.77;1797999;79;21046;-73
2022/07/03 04:21:13;;;;;;;6.12;1.98;;;;;;;21.64;49.17;100161.17;1783160;78;21553;-73
2022/07/03 04:23:40;;;;;;;3.72;2.05;;;;;;;21.75;49.00;100153.63;1776985;78;21012;-74
2022/07/03 04:26:06;;;;;;;4.30;2.37;;;;;;;21.85;49.00;100153.59;1789590;78;21044;-73
2022/07/03 04:28:33;;;;;;;3.20;2.20;;;;;;;21.97;48.85;100154.42;1803879;79;21075;-75
2022/07/03 04:31:00;;;;;;;4.03;2.50;;;;;;;22.09;48.27;100154.44;1790166;78;21010;-75
2022/07/03 04:33:26;;;;;;;2.22;1.92;;;;;;;22.19;47.98;100151.45;1779972;79;21102;-73
2022/07/03 04:35:52;;;;;;;3.22;2.37;;;;;;;22.32;47.66;100148.23;1784879;78;21076;-73
2022/07/03 04:38:19;;;;;;;3.60;2.35;;;;;;;22.45;47.67;100148.00;1792347;79;21040;-75
2022/07/03 04:40:46;;;;;;;3.52;2.60;;;;;;;22.60;47.35;100155.64;1791100;78;21072;-73
2022/07/03 04:43:12;;;;;;;6.17;2.45;;;;;;;22.74;47.26;100153.50;1792799;78;21536;-74
2022/07/03 04:45:39;;;;;;;4.60;2.30;;;;;;;22.82;46.43;100154.48;1782205;79;22275;-73
2022/07/03 04:48:05;;;;;;;3.22;2.15;;;;;;;22.84;46.31;100157.77;1800414;79;21031;-72
2022/07/03 04:50:32;;;;;;;4.53;2.37;;;;;;;22.88;46.39;100156.22;1791146;78;21099;-71
2022/07/03 04:52:59;;;;;;;2.95;2.65;;;;;;;22.94;46.21;100152.55;1769971;79;21512;-73
2022/07/03 04:55:25;;;;;;;3.12;2.40;;;;;;;23.04;46.31;100143.02;1785473;79;21049;-72
2022/07/03 04:57:52;;;;;;;3.22;2.92;;;;;;;23.11;46.42;100146.42;1772556;79;21106;-74
2022/07/03 05:00:18;;;;;;;2.85;2.25;;;;;;;23.16;46.31;100142.47;1795107;79;21155;-71
2022/07/03 05:02:44;;;;;;;5.80;2.75;;;;;;;23.20;46.18;100142.78;1817791;77;21115;-74
2022/07/03 05:05:11;;;;;;;3.67;2.40;;;;;;;23.27;46.26;100138.86;1813326;77;21112;-74
2022/07/03 05:07:39;;;;;;;3.40;2.40;;;;;;;23.41;46.08;100137.22;1813874;77;21544;-74
2022/07/03 05:10:07;;;;;;;6.17;2.30;;;;;;;23.56;46.24;100138.84;1789512;80;21923;-73
2022/07/03 05:12:35;;;;;;;3.35;2.45;;;;;;;23.77;46.25;100140.56;1819983;77;21072;-75
2022/07/03 05:15:02;;;;;;;5.00;2.80;;;;;;;23.95;45.92;100132.20;1793385;78;21533;-74
2022/07/03 05:17:29;;;;;;;4.80;2.67;;;;;;;24.14;45.87;100128.70;1792696;78;21514;-73
2022/07/03 05:22:41;;;;;;;3.02;2.20;;;;;;;24.50;45.01;100134.11;1786401;79;21192;-74
2022/07/03 05:25:08;;;;;;;4.60;2.80;;;;;;;24.67;44.26;100130.56;1799550;79;21099;-74
2022/07/03 05:27:37;;;;;;;2.83;2.00;;;;;;;24.83;44.08;100128.86;1800401;79;21134;-73
2022/07/03 05:30:04;;;;;;;5.50;2.47;;;;;;;24.94;43.81;100127.91;1796573;79;21429;-73
2022/07/03 05:32:31;;;;;;;5.00;2.50;;;;;;;25.03;43.29;100119.56;1789766;79;21040;-73
2022/07/03 05:34:58;;;;;;;5.35;2.27;;;;;;;25.13;43.43;100122.97;1798329;78;21229;-72
2022/07/03 05:37:24;;;;;;;6.20;2.50;;;;;;;25.22;43.25;100123.31;1750267;80;21016;-75
2022/07/03 05:39:51;;;;;;;6.70;2.62;;;;;;;25.32;42.27;100120.72;1765779;80;21032;-73
2022/07/03 05:42:17;;;;;;;3.25;2.55;;;;;;;25.31;42.32;100111.75;1755718;80;21072;-74
2022/07/03 05:44:44;;;;;;;3.92;2.72;;;;;;;25.39;41.67;100117.27;1763800;80;21060;-73
2022/07/03 05:47:10;;;;;;;4.80;2.60;;;;;;;25.43;41.78;100117.58;1742421;80;21509;-75
2022/07/03 05:49:37;;;;;;;2.77;2.35;;;;;;;25.49;41.35;100124.16;1762029;80;21081;-73
2022/07/03 05:52:04;;;;;;;4.30;2.72;;;;;;;25.55;41.06;100120.13;1758239;80;21042;-74
2022/07/03 05:54:31;;;;;;;2.83;2.12;;;;;;;25.59;41.04;100115.27;1770970;80;21036;-73
2022/07/03 05:56:58;;;;;;;7.17;2.37;;;;;;;25.58;40.42;100123.16;1720918;82;21022;-74
2022/07/03 05:59:24;;;;;;;4.97;2.62;;;;;;;25.58;41.08;100116.36;1767219;80;21470;-71
2022/07/03 06:01:50;;;;;;;6.12;3.10;;;;;;;25.62;41.31;100117.48;1763340;80;21012;-72
2022/07/03 06:04:17;;;;;;;4.37;2.55;;;;;;;25.65;41.32;100122.41;1748980;80;21069;-72
2022/07/03 06:06:43;;;;;;;3.95;3.10;;;;;;;25.63;41.48;100115.57;1773481;80;21041;-74
2022/07/03 06:09:10;;;;;;;5.72;3.30;;;;;;;25.61;41.90;100108.21;1766215;80;21036;-74
2022/07/03 06:11:37;;;;;;;4.50;2.85;;;;;;;25.63;41.82;100110.12;1767039;80;21790;-75
2022/07/03 06:14:03;;;;;;;3.77;2.92;;;;;;;25.63;41.80;100122.37;1786858;80;21564;-74
2022/07/03 06:16:30;;;;;;;5.25;3.08;;;;;;;25.63;42.02;100115.05;1782957;80;21506;-74
2022/07/03 06:18:56;;;;;;;4.90;3.00;;;;;;;25.64;42.07;100120.77;1777297;80;21587;-72
2022/07/03 06:21:23;;;;;;;5.17;2.77;;;;;;;25.63;42.11;100122.37;1777162;80;21065;-74
2022/07/03 06:23:50;;;;;;;4.95;3.55;;;;;;;25.59;42.29;100122.61;1774158;80;21248;-71
2022/07/03 06:26:17;;;;;;;4.72;3.25;;;;;;;25.59;42.51;100121.25;1769596;80;21088;-74
2022/07/03 06:28:44;;;;;;;4.85;3.35;;;;;;;25.65;42.66;100125.66;1760120;80;21057;-73
2022/07/03 06:31:10;;;;;;;4.83;3.72;;;;;;;25.69;42.59;100119.97;1772459;79;21041;-71
2022/07/03 06:33:37;;;;;;;2.95;2.65;;;;;;;25.72;42.56;100114.57;1763555;80;21081;-73
2022/07/03 06:36:04;;;;;;;5.17;3.15;;;;;;;25.76;42.61;100112.42;1816602;77;21243;-73
2022/07/03 06:38:30;;;;;;;3.00;2.70;;;;;;;25.78;42.65;100114.34;1811187;79;21029;-74
2022/07/03 06:40:57;;;;;;;4.25;2.80;;;;;;;25.75;42.52;100109.44;1803103;78;21059;-71
2022/07/03 06:43:24;;;;;;;3.62;3.15;;;;;;;25.74;42.63;100102.89;1790769;79;21580;-73
2022/07/03 06:47:19;;;;;;;4.28;3.30;;;;;;;25.88;42.49;100094.03;1851802;76;22611;-74
2022/07/03 06:49:46;;;;;;;8.68;3.27;;;;;;;25.94;42.35;100098.16;1795982;78;21481;-74
2022/07/03 06:52:12;;;;;;;3.70;3.40;;;;;;;26.00;42.56;100097.95;1824558;77;20968;-73
2022/07/03 06:54:41;;;;;;;4.92;3.60;;;;;;;26.08;42.50;100098.00;1823411;77;21016;-73
2022/07/03 06:57:07;;;;;;;5.33;3.45;;;;;;;26.19;42.56;100099.71;1830290;77;21068;-74
2022/07/03 06:59:34;;;;;;;4.78;3.60;;;;;;;26.28;42.08;100090.48;1825353;78;20950;-74
2022/07/03 07:02:01;;;;;;;4.70;3.80;;;;;;;26.40;41.77;100097.89;1816790;77;21091;-73
2022/07/03 07:04:28;;;;;;;6.10;4.05;;;;;;;26.44;41.57;100087.30;1811660;78;21637;-81
2022/07/03 07:06:54;;;;;;;6.70;3.87;;;;;;;26.43;41.87;100094.66;1804298;78;20992;-80
2022/07/03 07:09:21;;;;;;;5.70;4.37;;;;;;;26.48;42.12;100097.94;1811718;78;20894;-80
2022/07/03 07:11:48;;;;;;;8.48;4.30;;;;;;;26.56;42.10;100092.00;1830389;77;20927;-80
2022/07/03 07:14:15;;;;;;;5.50;3.95;;;;;;;26.62;42.18;100093.69;1828426;78;21084;-80
2022/07/03 07:16:42;;;;;;;7.15;4.03;;;;;;;26.60;42.13;100086.33;1816156;78;21128;-79
2022/07/03 07:19:08;;;;;;;4.10;3.67;;;;;;;26.61;41.95;100089.31;1828425;77;21006;-79
2022/07/03 07:21:35;;;;;;;5.35;3.77;;;;;;;26.61;42.09;100096.12;1816938;78;21544;-78
2022/07/03 07:24:02;;;;;;;4.33;3.92;;;;;;;26.58;42.17;100085.74;1811664;77;21088;-78
2022/07/03 07:26:28;;;;;;;6.30;3.55;;;;;;;26.55;42.80;100092.27;1810698;77;21074;-80
2022/07/03 07:28:55;;;;;;;4.97;4.03;;;;;;;26.51;42.89;100084.34;1804484;77;21296;-79
2022/07/03 07:31:21;;;;;;;5.25;4.42;;;;;;;26.56;43.28;100085.71;1823099;77;21075;-79
2022/07/03 07:33:48;;;;;;;7.20;4.12;;;;;;;26.58;42.72;100098.00;1820526;77;21084;-80
2022/07/03 07:36:14;;;;;;;5.15;4.28;;;;;;;26.54;42.77;100091.97;1825565;78;20990;-78
2022/07/03 07:38:41;;;;;;;4.80;3.95;;;;;;;26.49;42.84;100092.23;1821259;77;21052;-80
2022/07/03 07:41:07;;;;;;;5.70;4.33;;;;;;;26.46;42.86;100091.94;1822397;77;21197;-79
2022/07/03 07:43:33;;;;;;;5.72;4.22;;;;;;;26.44;43.01;100088.14;1787744;77;21064;-77
2022/07/03 07:46:00;;;;;;;5.58;4.37;;;;;;;26.46;42.94;100089.21;1821520;76;21221;-79
2022/07/03 07:48:27;;;;;;;5.80;4.55;;;;;;;26.54;43.59;100082.44;1822940;76;21092;-80
2022/07/03 07:50:55;;;;;;;4.45;4.05;;;;;;;26.63;43.23;100093.14;1834047;77;21091;-80
2022/07/03 07:53:22;;;;;;;9.18;5.47;;;;;;;26.69;43.24;100086.62;1824354;76;21208;-82
2022/07/03 07:55:48;;;;;;;7.58;4.67;;;;;;;26.75;43.46;100087.46;1817182;78;21015;-80
2022/07/03 07:58:15;;;;;;;6.15;4.65;;;;;;;26.83;42.92;100091.86;1830392;78;21517;-81
2022/07/03 08:05:35;;;;;;;5.62;4.55;;;;;;;26.86;42.81;100094.03;1833509;77;21041;-81
2022/07/03 08:05:55;;;;;;;5.72;4.50;;;;;;;26.92;42.70;100087.25;1777614;80;22565;-80
2022/07/03 08:08:22;;;;;;;5.00;4.60;;;;;;;26.96;42.76;100091.07;1781868;80;21061;-79
2022/07/03 08:10:49;;;;;;;4.90;4.50;;;;;;;27.01;42.67;100085.64;1785857;80;21108;-80
2022/07/03 08:13:18;;;;;;;6.70;4.97;;;;;;;27.05;42.56;100079.38;1780158;80;21018;-82
2022/07/03 08:15:45;;;;;;;5.03;4.62;;;;;;;27.14;42.66;100082.41;1764659;78;21496;-79
2022/07/03 08:18:11;;;;;;;6.78;4.40;;;;;;;27.25;42.73;100075.91;1756300;78;21798;-80
2022/07/03 08:20:38;;;;;;;7.33;4.65;;;;;;;27.46;42.89;100085.46;1785601;80;21046;-78
2022/07/03 08:23:05;;;;;;;5.10;4.60;;;;;;;27.60;42.22;100088.46;1766947;80;21065;-80
2022/07/03 08:25:32;;;;;;;4.78;4.35;;;;;;;27.63;42.34;100096.92;1794184;80;21040;-79
2022/07/03 08:27:59;;;;;;;5.25;4.53;;;;;;;27.67;42.03;100095.03;1764456;79;21061;-80
2022/07/03 08:30:26;;;;;;;5.08;4.67;;;;;;;27.74;41.79;100104.58;1755020;80;21350;-80
2022/07/03 08:32:54;;;;;;;5.15;4.30;;;;;;;27.85;41.86;100092.56;1760151;80;21115;-81
2022/07/03 08:35:20;;;;;;;6.22;4.72;;;;;;;27.95;42.02;100083.58;1768334;79;21003;-80
2022/07/03 08:37:47;;;;;;;5.17;4.62;;;;;;;28.13;41.52;100081.36;1777818;79;21061;-79
2022/07/03 08:40:15;;;;;;;5.80;4.80;;;;;;;28.39;41.25;100082.89;1782637;80;21563;-81
2022/07/03 08:42:54;;;;;;;5.17;4.78;;;;;;;28.67;41.20;100082.02;1770174;80;21106;-80
2022/07/03 08:45:21;;;;;;;7.37;4.28;;;;;;;29.00;40.61;100085.13;1773233;78;21064;-80
2022/07/03 08:47:48;;;;;;;6.22;4.80;;;;;;;29.29;40.11;100085.23;1773151;80;21017;-81
2022/07/03 08:50:18;;;;;;;5.28;4.83;;;;;;;29.52;39.56;100079.59;1771053;80;21167;-80
2022/07/03 08:52:44;;;;;;;5.45;4.95;;;;;;;29.66;39.32;100081.11;1744584;81;21557;-81
2022/07/03 08:55:13;;;;;;;5.42;5.03;;;;;;;29.84;39.49;100076.86;1775535;78;21531;-79
2022/07/03 08:57:41;;;;;;;5.78;4.75;;;;;;;29.99;38.96;100069.88;1766585;80;21591;-79
2022/07/03 09:00:12;;;;;;;5.12;4.60;;;;;;;29.97;39.00;100069.34;1770389;81;21010;-80
2022/07/03 09:02:43;;;;;;;6.53;4.35;;;;;;;30.06;39.04;100065.44;1784991;80;21029;-79
2022/07/03 09:05:11;;;;;;;6.78;4.50;;;;;;;30.26;38.97;100068.49;1780769;80;21096;-80
2022/07/03 09:07:43;;;;;;;5.83;5.30;;;;;;;30.47;38.60;100065.55;1788027;80;21505;-80
2022/07/03 09:10:11;;;;;;;6.08;4.97;;;;;;;30.56;38.45;100064.61;1764616;80;21009;-79
2022/07/03 09:12:38;;;;;;;6.28;4.90;;;;;;;30.66;38.50;100060.91;1765260;81;21030;-80
2022/07/03 09:15:06;;;;;;;5.22;4.83;;;;;;;30.78;38.21;100065.97;1769718;81;20983;-81
2022/07/03 09:17:33;;;;;;;5.12;4.55;;;;;;;30.94;37.44;100065.22;1768309;80;21485;-80
2022/07/03 09:20:03;;;;;;;5.10;4.25;;;;;;;31.10;37.22;100058.41;1769288;81;21538;-80
2022/07/03 09:22:31;;;;;;;5.90;4.72;;;;;;;31.37;37.06;100052.78;1770934;81;21009;-81
2022/07/03 09:25:14;;;;;;;5.67;4.75;;;;;;;31.73;36.61;100057.67;1750279;81;21007;-79
2022/07/03 09:27:51;;;;;;;6.37;4.17;;;;;;;32.19;35.73;100065.09;1765469;81;21058;-78
2022/07/03 09:30:17;;;;;;;4.62;4.22;;;;;;;32.71;34.72;100061.56;1749657;81;21719;-79
2022/07/03 09:32:45;;;;;;;4.92;4.37;;;;;;;33.35;34.25;100060.67;1763250;81;21518;-79
2022/07/03 09:35:26;;;;;;;5.20;4.67;;;;;;;34.08;33.81;100052.20;1748562;81;21085;-80
2022/07/03 09:37:56;;;;;;;4.83;4.40;;;;;;;34.71;32.88;100054.84;1781469;80;21115;-81
2022/07/03 09:40:24;;;;;;;4.97;4.45;;;;;;;35.24;32.32;100062.04;1783964;78;21012;-81
2022/07/03 09:42:58;;;;;;;4.55;4.25;;;;;;;35.71;31.89;100058.56;1749449;81;21104;-79
2022/07/03 09:45:25;;;;;;;3.85;3.55;;;;;;;36.06;30.87;100050.14;1752717;81;21261;-84
2022/07/03 09:47:51;;;;;;;5.60;4.00;;;;;;;36.19;29.71;100048.56;1764721;80;21078;-81
2022/07/03 09:50:18;;;;;;;4.80;4.00;;;;;;;35.97;29.87;100046.05;1773078;80;21049;-81
2022/07/03 09:52:47;;;;;;;4.60;4.10;;;;;;;35.72;30.43;100042.24;1767266;80;21108;-80
2022/07/03 09:55:18;;;;;;;4.70;4.30;;;;;;;35.44;30.66;100046.73;1763429;80;21025;-84
2022/07/03 09:57:53;;;;;;;7.00;3.98;;;;;;;35.32;30.92;100033.59;1755396;80;21321;-84
2022/07/03 10:00:31;;;;;;;4.25;3.95;;;;;;;35.11;30.92;100037.56;1775594;78;21028;-83
2022/07/03 10:03:07;;;;;;;5.75;3.70;;;;;;;34.76;31.03;100042.28;1785288;79;21056;-82
2022/07/03 10:05:39;;;;;;;4.12;3.72;;;;;;;34.32;31.32;100041.36;1770923;80;21038;-84
2022/07/03 10:08:18;;;;;;;4.53;4.08;;;;;;;33.86;31.53;100048.92;1782252;80;21720;-84
2022/07/03 10:10:46;;;;;;;8.20;4.92;;;;;;;33.48;31.79;100046.02;1768899;79;21142;-80
2022/07/03 10:13:14;;;;;;;4.25;3.95;;;;;;;33.08;32.09;100050.56;1786119;80;21093;-82
2022/07/03 10:15:42;;;;;;;4.85;4.35;;;;;;;32.71;32.48;100050.56;1764182;80;21474;-82
2022/07/03 10:18:11;;;;;;;5.67;4.08;;;;;;;32.42;32.57;100044.58;1765624;80;20962;-82
2022/07/03 10:20:46;;;;;;;5.10;4.67;;;;;;;32.13;32.78;100047.08;1783050;80;21527;-83
2022/07/03 10:23:19;;;;;;;6.20;4.05;;;;;;;31.93;33.78;100055.10;1737267;80;21957;-83
2022/07/03 10:25:47;;;;;;;4.75;4.28;;;;;;;31.73;33.77;100056.30;1765906;80;21092;-82
2022/07/03 10:28:15;;;;;;;5.65;4.83;;;;;;;31.62;34.65;100053.47;1773561;79;21036;-82
2022/07/03 10:30:46;;;;;;;4.92;4.53;;;;;;;31.48;34.93;100049.32;1769618;80;21022;-80
2022/07/03 10:33:12;;;;;;;5.35;4.70;;;;;;;31.16;35.81;100056.41;1786515;80;21030;-86
2022/07/03 10:35:43;;;;;;;6.45;4.70;;;;;;;30.74;36.12;100055.33;1786777;80;21537;-82
2022/07/03 10:38:42;;;;;;;5.83;4.55;;;;;;;30.38;36.51;100052.50;1780632;78;21112;-83
2022/07/03 10:46:58;;;;;;;4.97;4.47;;;;;;;29.35;38.53;100051.82;1768819;80;21044;-84
2022/07/03 10:49:24;;;;;;;5.25;4.85;;;;;;;29.10;38.92;100052.23;1775868;80;21113;-82
2022/07/03 10:52:01;;;;;;;7.45;5.30;;;;;;;28.89;39.44;100060.30;1772344;79;21068;-82
2022/07/03 10:54:34;;;;;;;7.45;5.05;;;;;;;28.66;40.36;100062.60;1773865;79;21034;-81
2022/07/03 10:57:15;;;;;;;8.53;4.80;;;;;;;28.47;41.79;100062.93;1769499;79;20982;-80
2022/07/03 10:59:51;;;;;;;6.30;5.70;;;;;;;28.26;42.62;100060.81;1744927;80;21042;-81
2022/07/03 11:02:41;;;;;;;5.40;4.90;;;;;;;28.11;43.29;100054.88;1765366;80;21172;-81
2022/07/03 11:05:20;;;;;;;5.53;4.85;;;;;;;28.03;43.72;100057.63;1760350;80;21124;-78
2022/07/03 11:07:55;;;;;;;6.55;4.45;;;;;;;27.92;44.82;100047.25;1764209;80;20977;-79
2022/07/03 11:10:29;;;;;;;6.87;5.00;;;;;;;27.84;45.04;100051.33;1777985;80;21022;-78
2022/07/03 11:13:09;;;;;;;5.15;4.65;;;;;;;27.73;46.49;100051.63;1774838;80;21473;-81
2022/07/03 11:15:47;;;;;;;5.25;4.72;;;;;;;27.56;47.30;100050.53;1764815;80;21510;-79
2022/07/03 11:18:31;;;;;;;5.00;4.30;;;;;;;27.32;47.86;100051.09;1774831;80;21006;-79
2022/07/03 11:21:33;;;;;;;5.62;4.37;;;;;;;27.06;49.37;100051.55;1764697;80;21031;-81
2022/07/03 11:24:20;;;;;;;6.12;4.80;;;;;;;26.78;51.02;100061.05;1774794;80;21124;-80
2022/07/03 11:27:13;;;;;;;7.42;4.25;;;;;;;26.49;50.93;100047.28;1767798;79;21529;-81
2022/07/03 11:29:40;;;;;;;7.65;4.47;;;;;;;26.21;51.12;100055.86;1761625;80;21148;-81
2022/07/03 11:32:46;;;;;;;8.58;4.22;;;;;;;25.94;50.91;100050.02;1764064;79;20999;-80
2022/07/03 11:35:52;;;;;;;10.55;4.50;;;;;;;25.79;51.30;100045.25;1776329;80;21066;-80
2022/07/03 11:38:25;;;;;;;7.53;4.40;;;;;;;25.70;51.39;100032.66;1769202;79;21048;-79
2022/07/03 11:40:55;;;;;;;8.83;5.33;;;;;;;25.68;52.53;100026.66;1776820;80;21017;-77
2022/07/03 11:43:21;;;;;;;4.90;4.40;;;;;;;25.80;53.39;100027.02;1756424;79;21135;-78
2022/07/03 11:45:48;;;;;;;9.78;4.53;;;;;;;25.87;52.99;100025.70;1769346;79;21046;-78
2022/07/03 11:48:19;;;;;;;6.10;4.00;;;;;;;25.98;52.58;100025.27;1780129;80;21034;-77
2022/07/03 11:50:47;;;;;;;7.75;4.60;;;;;;;26.08;52.33;100025.31;1775052;80;21147;-76
2022/07/03 11:53:32;;;;;;;5.10;4.60;;;;;;;26.15;52.09;100017.45;1771090;80;21014;-78